Aviation Digital Data Service (ADDS)

Output produced by METARs form (0406 UTC 19 August 2019)
found at http://www.aviationweather.gov/metar/data/
 
Forecast for: HTDA (DAR ES SALAAM AR, TZ)
Text: HTDA 182300Z 1900/2006 16005KT 9999 SCT011
Forecast period: 0000 to 0700 UTC 19 August 2019
Forecast type: FROM: standard forecast or significant change
Winds: from the SSE (160 degrees) at 6 MPH (5 knots; 2.6 m/s)
Visibility: 6 or more miles 10+ km)
Ceiling: at least 12,000 feet AGL
Clouds: scattered clouds at 1100 feet AGL
Weather: no significant weather forecast for this period
Text: BECMG 1907/1910 14015KT BKN025
Forecast period: 0700 UTC 19 August 2019 to 0600 UTC 20 August 2019
Forecast type: BECOMING: Conditions expected to become as follows by 1000 UTC 19 August 2019
Winds: from the SE (140 degrees) at 17 MPH (15 knots; 7.7 m/s)
Visibility: 6 or more miles 10+ km)
Ceiling: 2500 feet AGL
Clouds: broken clouds at 2500 feet AGL
Weather: no significant weather forecast for this period